createdAt,value
2017-10-08T12:44:07.957Z,38.00
2017-10-08T12:46:34.777Z,39.00
2017-10-08T12:49:01.758Z,38.80
2017-10-08T12:51:35.366Z,38.60
2017-10-08T12:54:02.287Z,37.80
2017-10-08T12:56:29.150Z,38.00
2017-10-08T13:00:28.984Z,36.40
2017-10-08T13:02:56.520Z,36.10
2017-10-08T13:05:24.133Z,36.20
2017-10-08T13:07:52.526Z,37.30
2017-10-08T13:10:20.039Z,37.20
2017-10-08T13:12:47.643Z,37.10
2017-10-08T13:15:15.254Z,37.60
2017-10-08T13:17:42.809Z,37.40
2017-10-08T13:20:10.397Z,38.40
2017-10-08T13:22:37.928Z,37.90
2017-10-08T13:25:05.508Z,38.60
2017-10-08T13:27:33.095Z,39.60
2017-10-08T13:30:00.761Z,39.20
2017-10-08T13:32:29.154Z,39.30
2017-10-08T13:34:57.568Z,40.60
2017-10-08T13:37:25.093Z,40.50
2017-10-08T13:39:53.368Z,40.60
2017-10-08T13:42:21.786Z,40.60
2017-10-08T13:44:49.297Z,41.50
2017-10-08T13:47:16.938Z,41.70
2017-10-08T13:49:44.696Z,42.00
2017-10-08T13:52:12.568Z,42.30
2017-10-08T13:54:40.151Z,42.30
2017-10-08T13:57:08.478Z,42.20
2017-10-08T13:59:36.026Z,42.20
2017-10-08T14:02:03.731Z,41.60
2017-10-08T14:04:37.099Z,41.50
2017-10-08T14:07:04.686Z,41.50
2017-10-08T14:09:32.446Z,42.00
2017-10-08T14:12:00.035Z,42.30
2017-10-08T14:14:28.396Z,43.10
2017-10-08T14:16:56.006Z,42.60
2017-10-08T14:19:28.634Z,42.40
2017-10-08T14:21:56.178Z,42.90
2017-10-08T14:24:23.806Z,43.10
2017-10-08T14:26:52.188Z,42.30
2017-10-08T14:29:19.770Z,42.30
2017-10-08T14:31:47.406Z,42.50
2017-10-08T14:34:15.795Z,42.10
2017-10-08T14:36:44.165Z,42.40
2017-10-08T14:39:17.519Z,42.40
2017-10-08T14:41:45.168Z,42.30
2017-10-08T14:44:12.736Z,42.80
2017-10-08T14:46:40.521Z,42.90
2017-10-08T14:49:08.104Z,43.40
2017-10-08T14:51:41.594Z,44.00
2017-10-08T14:54:09.922Z,44.70
2017-10-08T14:56:47.728Z,44.40
2017-10-08T14:59:15.349Z,45.10
2017-10-08T15:01:43.774Z,46.40
2017-10-08T15:04:11.327Z,46.40
2017-10-08T15:06:38.984Z,47.10
2017-10-08T15:09:11.574Z,48.40
2017-10-08T15:11:39.554Z,49.00
2017-10-08T15:14:09.953Z,49.50
2017-10-08T15:16:37.535Z,50.00
2017-10-08T15:19:05.166Z,50.40
2017-10-08T15:21:32.845Z,50.70
2017-10-08T15:24:00.872Z,50.80
2017-10-08T15:26:29.213Z,51.60
2017-10-08T15:28:56.787Z,51.30
2017-10-08T15:31:30.147Z,52.80
2017-10-08T15:33:58.540Z,52.90
2017-10-08T15:36:26.073Z,53.10
2017-10-08T15:38:58.578Z,53.30
2017-10-08T15:41:26.223Z,53.90
2017-10-08T15:43:53.809Z,54.40
2017-10-08T15:46:21.559Z,54.10
2017-10-08T15:48:49.910Z,54.40
2017-10-08T15:51:18.275Z,54.80
2017-10-08T15:53:45.914Z,55.00
2017-10-08T15:56:13.478Z,55.30
2017-10-08T15:58:41.067Z,55.70
2017-10-08T16:01:09.430Z,56.30
2017-10-08T16:03:36.997Z,56.20
2017-10-08T16:06:04.568Z,56.70
2017-10-08T16:08:33.198Z,57.50
2017-10-08T16:11:00.843Z,57.60
2017-10-08T16:13:28.477Z,58.00
2017-10-08T16:15:56.918Z,59.00
2017-10-08T16:18:29.798Z,58.70
2017-10-08T16:20:57.421Z,59.10
2017-10-08T16:23:30.117Z,59.50
2017-10-08T16:25:57.690Z,59.60
2017-10-08T16:28:26.018Z,59.90
2017-10-08T16:30:55.058Z,60.00
2017-10-08T16:33:22.790Z,60.70
2017-10-08T16:41:36.911Z,61.50
2017-10-08T16:44:04.651Z,61.80
2017-10-08T16:46:32.965Z,62.60
2017-10-08T16:49:00.684Z,62.30
2017-10-08T16:51:29.751Z,63.00
2017-10-08T16:53:58.136Z,63.30
2017-10-08T16:56:25.866Z,63.70
2017-10-08T16:58:54.314Z,64.30
2017-10-08T17:01:22.060Z,64.00
2017-10-08T17:03:49.643Z,64.20
2017-10-08T17:06:17.436Z,64.30
2017-10-08T17:08:50.053Z,64.60
2017-10-08T17:11:17.715Z,64.70
2017-10-08T17:13:45.294Z,65.00
2017-10-08T17:16:12.870Z,65.30
2017-10-08T17:18:52.130Z,66.10
2017-10-08T17:21:19.855Z,65.70
2017-10-08T17:23:47.965Z,66.10
2017-10-08T17:26:15.660Z,66.10
2017-10-08T17:28:51.268Z,66.70
2017-10-08T17:31:19.532Z,67.10
2017-10-08T17:33:47.184Z,67.40
2017-10-08T17:36:15.530Z,68.00
2017-10-08T17:38:43.221Z,67.40
2017-10-08T17:41:10.919Z,67.70
2017-10-08T17:43:38.661Z,68.00
2017-10-08T17:46:06.300Z,68.30
2017-10-08T17:48:39.654Z,68.60
2017-10-08T17:51:07.343Z,68.60
2017-10-08T17:53:34.948Z,68.50
2017-10-08T17:56:04.812Z,68.70
2017-10-08T17:58:32.418Z,68.70
2017-10-08T18:01:00.889Z,69.10
2017-10-08T18:03:52.509Z,69.00
2017-10-08T18:06:25.354Z,68.80
2017-10-08T18:08:54.829Z,68.80
2017-10-08T18:11:23.144Z,68.50
2017-10-08T18:13:50.707Z,68.50
2017-10-08T18:16:18.296Z,68.70
2017-10-08T18:18:45.954Z,68.80
2017-10-08T18:21:13.687Z,68.90
2017-10-08T18:23:42.069Z,69.00
2017-10-08T18:26:09.622Z,68.90
2017-10-08T18:28:37.283Z,69.30
2017-10-08T18:31:04.848Z,69.50
2017-10-08T18:33:32.444Z,69.40
2017-10-08T18:36:00.222Z,69.70
2017-10-08T18:38:27.864Z,69.60
2017-10-08T18:40:55.524Z,69.90
2017-10-08T18:43:23.105Z,70.00
2017-10-08T18:45:50.774Z,70.40
2017-10-08T18:48:19.178Z,71.20
2017-10-08T18:50:47.585Z,71.50
2017-10-08T18:53:15.244Z,71.40
2017-10-08T18:55:42.908Z,71.50
2017-10-08T18:58:10.564Z,71.80
2017-10-08T19:00:38.170Z,71.90
2017-10-08T19:03:05.793Z,72.10
2017-10-08T19:05:34.201Z,72.30
2017-10-08T19:08:01.963Z,72.40
2017-10-08T19:10:29.626Z,72.40
2017-10-08T19:12:57.261Z,72.40
2017-10-08T19:15:24.931Z,72.50
2017-10-08T19:17:58.862Z,72.40
2017-10-08T19:20:27.452Z,72.40
2017-10-08T19:22:56.103Z,72.30
2017-10-08T19:25:23.662Z,72.30
2017-10-08T19:27:51.285Z,72.20
2017-10-08T19:30:19.006Z,72.10
2017-10-08T19:32:46.543Z,71.90
2017-10-08T19:35:14.257Z,72.10
2017-10-08T19:37:42.169Z,71.90
2017-10-08T19:40:09.739Z,71.90
2017-10-08T19:42:37.420Z,72.00
2017-10-08T19:45:05.100Z,72.10
2017-10-08T19:47:32.772Z,72.10
2017-10-08T19:50:01.223Z,72.10
2017-10-08T19:52:28.802Z,72.00
2017-10-08T19:54:56.759Z,72.10
2017-10-08T19:57:25.375Z,72.30
2017-10-08T19:59:52.937Z,72.30
2017-10-08T20:02:20.799Z,72.30
2017-10-08T20:04:49.164Z,72.10
2017-10-08T20:07:16.797Z,72.00
2017-10-08T20:09:44.377Z,71.60
2017-10-08T20:12:12.006Z,71.50
2017-10-08T20:14:40.380Z,71.60
2017-10-08T20:17:08.739Z,70.80
2017-10-08T20:19:36.546Z,70.80
2017-10-08T20:22:04.260Z,72.00
2017-10-08T20:24:31.933Z,71.20
2017-10-08T20:26:59.611Z,71.50
2017-10-08T20:29:42.208Z,72.00
2017-10-08T20:32:10.030Z,72.00
2017-10-08T20:34:38.404Z,72.60
2017-10-08T20:37:06.065Z,72.60
2017-10-08T20:39:34.246Z,72.90
2017-10-08T20:42:02.216Z,72.90
2017-10-08T20:44:32.298Z,73.00
2017-10-08T20:47:00.779Z,73.30
2017-10-08T20:49:29.700Z,73.40
2017-10-08T20:51:57.333Z,73.30
2017-10-08T20:54:25.681Z,73.10
2017-10-08T20:56:53.336Z,73.10
2017-10-08T20:59:21.036Z,72.90
2017-10-08T21:01:49.427Z,73.10
2017-10-08T21:04:17.016Z,73.00
2017-10-08T21:06:44.755Z,72.90
2017-10-08T21:09:13.350Z,72.80
2017-10-08T21:11:40.962Z,72.30
2017-10-08T21:14:08.659Z,72.50
2017-10-08T21:16:37.182Z,72.70
2017-10-08T21:19:10.656Z,72.60
2017-10-08T21:21:38.292Z,72.50
2017-10-08T21:24:06.382Z,71.90
2017-10-08T21:26:34.331Z,71.70
2017-10-08T21:29:02.957Z,71.40
2017-10-08T21:31:30.936Z,71.40
2017-10-08T21:33:58.466Z,71.20
2017-10-08T21:36:28.232Z,71.70
2017-10-08T21:38:55.784Z,71.60
2017-10-08T21:41:23.422Z,71.30
2017-10-08T21:43:50.969Z,71.20
2017-10-08T21:46:18.591Z,71.60
2017-10-08T21:48:46.286Z,71.40
2017-10-08T21:51:14.670Z,72.00
2017-10-08T21:53:43.049Z,72.20
2017-10-08T21:56:11.331Z,72.30
2017-10-08T21:58:44.638Z,72.50
2017-10-08T22:01:17.242Z,72.30
2017-10-08T22:03:44.808Z,72.40
2017-10-08T22:06:12.355Z,72.50
2017-10-08T22:08:39.914Z,72.70
2017-10-08T22:11:07.435Z,72.60
2017-10-08T22:13:35.757Z,73.30
2017-10-08T22:16:03.295Z,72.30
2017-10-08T22:18:30.894Z,72.30
2017-10-08T22:20:58.432Z,72.30
2017-10-08T22:23:26.045Z,72.30
2017-10-08T22:25:54.440Z,73.00
2017-10-08T22:28:22.738Z,72.60
2017-10-08T22:30:51.217Z,72.20
2017-10-08T22:33:18.903Z,72.70
2017-10-08T22:35:46.504Z,72.10
2017-10-08T22:38:14.075Z,71.90
2017-10-08T22:40:41.596Z,72.30
2017-10-08T22:43:15.184Z,71.80
2017-10-08T22:45:42.701Z,71.90
2017-10-08T22:48:11.021Z,72.50
2017-10-08T22:50:38.590Z,72.50
2017-10-08T22:53:06.128Z,72.20
2017-10-08T22:55:33.703Z,72.30
2017-10-08T22:58:01.266Z,72.30
2017-10-08T23:00:28.821Z,72.30
2017-10-08T23:02:56.384Z,72.30
2017-10-08T23:05:23.990Z,72.60
2017-10-08T23:07:51.645Z,72.40
2017-10-08T23:10:19.200Z,72.90
2017-10-08T23:12:46.768Z,72.30
2017-10-08T23:15:14.289Z,72.60
2017-10-08T23:17:41.871Z,72.60
2017-10-08T23:20:09.434Z,72.70
2017-10-08T23:22:36.982Z,72.90
2017-10-08T23:25:04.597Z,73.10
2017-10-08T23:27:32.939Z,73.60
2017-10-08T23:30:00.567Z,73.20
2017-10-08T23:32:28.126Z,73.60
2017-10-08T23:34:55.806Z,73.50
2017-10-08T23:37:23.505Z,73.40
2017-10-08T23:39:51.069Z,73.60
2017-10-08T23:42:19.478Z,74.20
2017-10-08T23:44:47.001Z,73.40
2017-10-08T23:47:14.560Z,73.60
2017-10-08T23:49:42.092Z,73.60
2017-10-08T23:52:09.703Z,73.70
2017-10-08T23:54:38.006Z,74.60
2017-10-08T23:57:05.535Z,74.20
2017-10-08T23:59:33.845Z,75.40
